Time;durP1;ratioP1;P1;durP2;ratioP2;P2;SDS_P1;SDS_P2;PMS_P1;PMS_P2;Temp;Humidity;BMP_temperature;BMP_pressure;BME280_temperature;BME280_humidity;BME280_pressure;Samples;Min_cycle;Max_cycle;Signal;HPM_P1;HPM_P2
2022/05/12 00:02:18;;;;;;;4.07;3.50;;;19.10;42.80;;;;;;5084399;28;20595;-44
2022/05/12 00:04:44;;;;;;;4.60;3.53;;;19.10;42.90;;;;;;5084426;28;20181;-45
2022/05/12 00:07:09;;;;;;;3.97;3.67;;;19.10;43.10;;;;;;5083988;28;20439;-44
2022/05/12 00:09:36;;;;;;;5.90;3.40;;;19.10;43.50;;;;;;5084012;28;20183;-45
2022/05/12 00:12:03;;;;;;;4.43;4.03;;;19.00;43.80;;;;;;5084091;28;20177;-44
2022/05/12 00:14:29;;;;;;;4.40;4.00;;;19.00;43.70;;;;;;5082903;28;20420;-44
2022/05/12 00:16:58;;;;;;;3.43;3.13;;;19.00;43.70;;;;;;5083334;28;20474;-44
2022/05/12 00:19:26;;;;;;;3.97;3.67;;;18.90;43.70;;;;;;5083412;28;20427;-45
2022/05/12 00:21:52;;;;;;;4.30;3.10;;;18.90;43.80;;;;;;5066468;28;20733;-44
2022/05/12 00:24:19;;;;;;;3.83;3.53;;;18.90;44.00;;;;;;5083445;28;20427;-44
2022/05/12 00:26:45;;;;;;;5.83;4.23;;;18.90;44.10;;;;;;5082524;28;20770;-45
2022/05/12 00:29:14;;;;;;;4.73;4.10;;;18.90;44.30;;;;;;5084648;28;20434;-45
2022/05/12 00:31:44;;;;;;;4.30;3.90;;;18.90;44.60;;;;;;5083162;28;20489;-44
2022/05/12 00:34:11;;;;;;;4.70;4.30;;;18.90;44.80;;;;;;5083282;28;20428;-44
2022/05/12 00:36:37;;;;;;;6.13;4.03;;;18.80;44.90;;;;;;5083119;28;20476;-44
2022/05/12 00:39:06;;;;;;;3.83;3.40;;;18.80;45.20;;;;;;5083348;28;20425;-45
2022/05/12 00:41:31;;;;;;;4.30;3.90;;;18.80;45.40;;;;;;5084478;28;20894;-44
2022/05/12 00:44:02;;;;;;;4.57;3.50;;;18.70;45.30;;;;;;5083474;28;20488;-44
2022/05/12 00:46:31;;;;;;;3.97;3.60;;;18.80;45.70;;;;;;5082807;28;20442;-45
2022/05/12 00:49:01;;;;;;;4.03;3.60;;;18.80;45.60;;;;;;5084219;28;20428;-44
2022/05/12 00:51:31;;;;;;;4.63;4.27;;;18.70;45.80;;;;;;5083447;28;20442;-45
2022/05/12 00:53:59;;;;;;;4.80;4.33;;;18.80;46.00;;;;;;5083109;28;20822;-44
2022/05/12 00:56:25;;;;;;;4.10;3.70;;;18.80;46.10;;;;;;5083172;28;20567;-44
2022/05/12 00:59:00;;;;;;;5.30;3.83;;;18.80;46.10;;;;;;5083773;28;20431;-44
2022/05/12 01:01:27;;;;;;;9.10;4.27;;;18.80;46.20;;;;;;5083770;28;20893;-45
2022/05/12 01:03:54;;;;;;;4.60;4.17;;;18.70;46.30;;;;;;5082411;28;20432;-45
2022/05/12 01:06:20;;;;;;;4.43;4.03;;;18.70;46.40;;;;;;5073064;28;20466;-44
2022/05/12 01:08:46;;;;;;;4.80;4.07;;;18.60;46.40;;;;;;5081941;28;20430;-45
2022/05/12 01:11:18;;;;;;;4.23;3.90;;;18.60;46.60;;;;;;5082181;28;20190;-45
2022/05/12 01:13:49;;;;;;;5.13;4.13;;;18.60;46.70;;;;;;5082958;28;20761;-44
2022/05/12 01:16:37;;;;;;;4.00;3.60;;;18.60;46.80;;;;;;5064862;28;20892;-44
2022/05/12 01:19:03;;;;;;;4.23;3.83;;;18.60;47.20;;;;;;5074151;28;20712;-44
2022/05/12 01:21:29;;;;;;;5.10;3.67;;;18.60;47.10;;;;;;5082413;28;20506;-44
2022/05/12 01:23:55;;;;;;;4.57;3.83;;;18.60;47.20;;;;;;5082636;28;20430;-44
2022/05/12 01:26:20;;;;;;;16.03;4.93;;;18.60;47.40;;;;;;5081776;28;20226;-44
2022/05/12 01:28:46;;;;;;;3.63;3.33;;;18.60;47.50;;;;;;5082085;28;20250;-44
2022/05/12 01:31:17;;;;;;;4.10;3.80;;;18.50;47.50;;;;;;5081243;28;20626;-44
2022/05/12 01:33:43;;;;;;;4.63;4.10;;;18.50;47.80;;;;;;5082572;28;20200;-48
2022/05/12 01:36:09;;;;;;;4.00;3.70;;;18.50;47.80;;;;;;5081282;28;20468;-44
2022/05/12 01:38:34;;;;;;;3.93;3.63;;;18.50;47.90;;;;;;5082163;28;20432;-44
2022/05/12 01:41:00;;;;;;;5.03;4.10;;;18.50;48.20;;;;;;5082382;28;20169;-45
2022/05/12 01:43:27;;;;;;;4.20;3.77;;;18.50;48.00;;;;;;5081897;28;20431;-44
2022/05/12 01:46:08;;;;;;;3.87;3.57;;;18.50;48.20;;;;;;5082335;28;20186;-45
2022/05/12 01:48:34;;;;;;;4.57;4.17;;;18.50;48.20;;;;;;5082789;28;20470;-45
2022/05/12 01:51:00;;;;;;;5.00;4.20;;;18.50;48.20;;;;;;5082620;28;20431;-44
2022/05/12 01:53:26;;;;;;;4.90;4.40;;;18.50;48.40;;;;;;5082000;28;20175;-44
2022/05/12 01:55:52;;;;;;;4.50;4.10;;;18.50;48.40;;;;;;5082067;28;20311;-44
2022/05/12 01:58:19;;;;;;;4.20;3.80;;;18.50;48.50;;;;;;5081921;28;20450;-45
2022/05/12 02:00:45;;;;;;;4.53;4.13;;;18.50;48.40;;;;;;5082724;28;20212;-44
2022/05/12 02:03:11;;;;;;;9.30;4.33;;;18.50;48.60;;;;;;5081669;28;20746;-45
2022/05/12 02:05:38;;;;;;;4.93;4.53;;;18.50;48.90;;;;;;5082337;28;20427;-45
2022/05/12 02:08:04;;;;;;;4.33;3.93;;;18.50;48.90;;;;;;5081801;28;20205;-44
2022/05/12 02:10:38;;;;;;;4.93;4.23;;;18.60;49.00;;;;;;5083013;28;20441;-44
2022/05/12 02:13:06;;;;;;;4.60;4.20;;;18.50;49.00;;;;;;5082604;28;20459;-45
2022/05/12 02:15:31;;;;;;;4.20;3.90;;;18.50;49.00;;;;;;5081604;28;20637;-44
2022/05/12 02:17:57;;;;;;;4.50;4.20;;;18.50;49.20;;;;;;5081929;28;20780;-45
2022/05/12 02:20:23;;;;;;;5.00;4.50;;;18.50;49.30;;;;;;5080743;28;20178;-44
2022/05/12 02:22:49;;;;;;;4.60;4.20;;;18.50;49.40;;;;;;5080923;28;20175;-44
2022/05/12 02:25:15;;;;;;;5.10;4.23;;;18.40;49.50;;;;;;5080871;28;20845;-44
2022/05/12 02:27:47;;;;;;;7.93;5.30;;;18.40;49.70;;;;;;5081286;28;20760;-44
2022/05/12 02:30:20;;;;;;;5.10;4.70;;;18.40;49.80;;;;;;5080164;28;20725;-44
2022/05/12 02:32:46;;;;;;;6.50;4.40;;;18.30;49.80;;;;;;5081429;28;20456;-44
2022/05/12 02:35:12;;;;;;;5.03;4.50;;;18.30;49.90;;;;;;5081669;28;20907;-44
2022/05/12 02:37:39;;;;;;;4.70;4.30;;;18.30;50.10;;;;;;5082319;28;20511;-44
2022/05/12 02:40:06;;;;;;;4.70;4.33;;;18.20;50.10;;;;;;5086222;28;20424;-45
2022/05/12 02:42:31;;;;;;;5.27;4.87;;;18.20;50.30;;;;;;5085235;28;20450;-44
2022/05/12 02:44:57;;;;;;;10.30;5.00;;;18.20;50.80;;;;;;5067413;28;20444;-44
2022/05/12 02:47:23;;;;;;;5.80;4.47;;;18.20;50.70;;;;;;5085567;28;20455;-44
2022/05/12 02:49:49;;;;;;;5.10;4.60;;;18.10;50.80;;;;;;5085717;28;20494;-44
2022/05/12 02:52:15;;;;;;;4.83;4.43;;;18.10;50.90;;;;;;5085081;28;20607;-44
2022/05/12 02:54:41;;;;;;;5.77;4.40;;;18.10;51.10;;;;;;5085637;28;20421;-44
2022/05/12 02:57:07;;;;;;;4.70;4.20;;;18.10;51.60;;;;;;5086330;28;20481;-44
2022/05/12 02:59:33;;;;;;;5.53;5.03;;;18.10;51.70;;;;;;5085415;28;20439;-44
2022/05/12 03:01:59;;;;;;;4.90;4.40;;;18.10;52.10;;;;;;5085496;28;20456;-44
2022/05/12 03:04:26;;;;;;;4.60;4.13;;;18.10;52.30;;;;;;5085451;28;20504;-44
2022/05/12 03:06:52;;;;;;;4.53;4.13;;;18.00;52.60;;;;;;5085421;28;20442;-44
2022/05/12 03:09:18;;;;;;;4.10;3.80;;;18.00;52.60;;;;;;5084904;28;20450;-44
2022/05/12 03:11:43;;;;;;;6.07;5.07;;;17.90;52.40;;;;;;5085508;28;20190;-44
2022/05/12 03:14:09;;;;;;;5.17;4.43;;;17.90;52.80;;;;;;5084778;28;20526;-44
2022/05/12 03:16:35;;;;;;;4.77;4.47;;;17.90;52.90;;;;;;5085261;28;20213;-44
2022/05/12 03:19:01;;;;;;;4.90;4.50;;;17.90;52.80;;;;;;5084827;28;20480;-44
2022/05/12 03:21:27;;;;;;;5.07;4.00;;;17.80;53.00;;;;;;5085923;28;20461;-44
2022/05/12 03:23:53;;;;;;;4.87;4.30;;;17.80;53.00;;;;;;5083781;28;20837;-44
2022/05/12 03:26:19;;;;;;;4.97;4.57;;;17.80;53.70;;;;;;5085505;28;20536;-44
2022/05/12 03:28:45;;;;;;;4.90;4.53;;;17.70;54.00;;;;;;5084079;28;20504;-44
2022/05/12 03:31:11;;;;;;;4.87;4.47;;;17.70;54.30;;;;;;5066797;28;20474;-44
2022/05/12 03:33:37;;;;;;;5.90;5.30;;;17.60;54.50;;;;;;5064538;28;20439;-44
2022/05/12 03:36:05;;;;;;;4.90;4.50;;;17.50;54.80;;;;;;5084383;28;20475;-44
2022/05/12 03:38:30;;;;;;;5.27;4.77;;;17.50;55.00;;;;;;5084347;28;20497;-44
2022/05/12 03:40:56;;;;;;;5.33;4.93;;;17.50;55.50;;;;;;5084537;28;20431;-44
2022/05/12 03:46:08;;;;;;;6.83;4.90;;;17.40;55.70;;;;;;5082645;28;20443;-44
2022/05/12 03:48:39;;;;;;;6.43;5.40;;;17.30;56.10;;;;;;5083657;28;20436;-44
2022/05/12 03:51:06;;;;;;;5.33;4.83;;;17.30;56.30;;;;;;5083619;28;20532;-44
2022/05/12 03:53:33;;;;;;;5.07;4.67;;;17.20;56.80;;;;;;5083959;28;20445;-44
2022/05/12 03:55:59;;;;;;;5.70;5.20;;;17.20;57.10;;;;;;5083829;28;20482;-44
2022/05/12 03:58:25;;;;;;;6.10;5.60;;;17.10;57.60;;;;;;5083301;28;20431;-44
2022/05/12 04:00:52;;;;;;;5.27;4.87;;;17.10;57.80;;;;;;5084847;28;20424;-43
2022/05/12 04:03:18;;;;;;;7.00;5.10;;;17.10;58.20;;;;;;5083123;28;20868;-44
2022/05/12 04:05:44;;;;;;;5.90;5.40;;;17.10;58.70;;;;;;5083754;28;20470;-44
2022/05/12 04:08:09;;;;;;;7.13;4.80;;;17.00;58.90;;;;;;5081649;28;20701;-44
2022/05/12 04:10:36;;;;;;;5.47;5.00;;;17.10;59.30;;;;;;5081920;28;20190;-44
2022/05/12 04:13:02;;;;;;;5.77;4.60;;;17.10;59.90;;;;;;5081891;28;20419;-45
2022/05/12 04:15:28;;;;;;;5.60;5.20;;;17.10;60.90;;;;;;5081748;28;20468;-44
2022/05/12 04:18:01;;;;;;;5.63;4.93;;;17.10;61.60;;;;;;5081450;28;20190;-44
2022/05/12 04:20:28;;;;;;;5.47;4.93;;;17.10;62.40;;;;;;5080310;28;20434;-44
2022/05/12 04:22:54;;;;;;;5.40;4.70;;;17.10;63.80;;;;;;5081449;28;20428;-45
2022/05/12 04:25:21;;;;;;;4.53;4.10;;;17.10;65.30;;;;;;5081612;28;20588;-44
2022/05/12 04:27:47;;;;;;;5.10;4.67;;;17.00;67.10;;;;;;5083301;28;20433;-43
2022/05/12 04:30:15;;;;;;;5.70;4.53;;;17.00;69.00;;;;;;5066441;28;20454;-44
2022/05/12 04:32:42;;;;;;;5.67;5.17;;;16.90;70.90;;;;;;5081131;28;20435;-44
2022/05/12 04:35:12;;;;;;;5.33;4.50;;;16.90;73.00;;;;;;5081258;28;20443;-44
2022/05/12 04:37:58;;;;;;;5.00;4.47;;;16.90;74.30;;;;;;5080888;28;20473;-44
2022/05/12 04:40:30;;;;;;;6.77;4.10;;;16.90;76.10;;;;;;5079020;28;20883;-44
2022/05/12 04:42:58;;;;;;;4.80;3.93;;;17.00;77.30;;;;;;5080326;28;20437;-45
2022/05/12 04:45:27;;;;;;;4.60;4.10;;;17.00;78.30;;;;;;5079241;28;20455;-44
2022/05/12 04:47:52;;;;;;;5.63;4.53;;;17.00;79.30;;;;;;5079124;28;20450;-44
2022/05/12 04:50:30;;;;;;;4.83;4.00;;;17.00;80.70;;;;;;5078624;28;20470;-44
2022/05/12 04:52:56;;;;;;;4.13;3.80;;;17.10;80.90;;;;;;5079100;28;20184;-44
2022/05/12 04:55:22;;;;;;;3.63;3.20;;;17.20;81.20;;;;;;5077886;28;20952;-44
2022/05/12 04:57:50;;;;;;;5.20;3.57;;;17.20;81.60;;;;;;5076926;28;20176;-44
2022/05/12 05:00:25;;;;;;;3.93;3.30;;;17.30;82.00;;;;;;5075148;28;20463;-44
2022/05/12 05:02:51;;;;;;;5.00;3.83;;;17.30;81.90;;;;;;5076775;28;20639;-44
2022/05/12 05:05:17;;;;;;;5.07;3.40;;;17.40;81.90;;;;;;5076528;28;20490;-44
2022/05/12 05:07:44;;;;;;;4.30;3.77;;;17.50;81.80;;;;;;5079280;28;20175;-43
2022/05/12 05:10:12;;;;;;;5.13;3.60;;;17.60;81.70;;;;;;5077644;28;20189;-44
2022/05/12 05:12:39;;;;;;;5.30;3.60;;;17.70;82.10;;;;;;5075461;28;20428;-44
2022/05/12 05:15:06;;;;;;;3.40;3.10;;;17.70;82.20;;;;;;5078969;28;20443;-44
2022/05/12 05:17:31;;;;;;;3.83;3.53;;;17.80;82.10;;;;;;5076118;28;21102;-44
2022/05/12 05:19:57;;;;;;;5.67;3.47;;;17.90;81.90;;;;;;5077649;28;20425;-44
2022/05/12 05:22:23;;;;;;;4.30;3.73;;;18.00;81.80;;;;;;5078120;28;20203;-44
2022/05/12 05:24:49;;;;;;;5.70;3.47;;;18.00;81.60;;;;;;5079497;28;20174;-44
2022/05/12 05:27:14;;;;;;;7.63;3.83;;;18.10;81.80;;;;;;5075732;28;20204;-44
2022/05/12 05:29:42;;;;;;;4.67;3.77;;;18.20;81.60;;;;;;5078212;28;20189;-45
2022/05/12 05:32:12;;;;;;;4.73;3.37;;;18.20;81.60;;;;;;5077054;28;20665;-44
2022/05/12 05:34:39;;;;;;;4.67;3.97;;;18.30;81.50;;;;;;5077066;28;20439;-45
2022/05/12 05:37:05;;;;;;;4.10;3.33;;;18.40;81.60;;;;;;5076543;28;20499;-45
2022/05/12 05:39:33;;;;;;;5.13;4.67;;;18.50;81.30;;;;;;5075050;28;20457;-44
2022/05/12 05:42:03;;;;;;;3.90;3.27;;;18.60;80.40;;;;;;5073005;28;20620;-44
2022/05/12 05:44:32;;;;;;;4.90;3.87;;;18.80;80.30;;;;;;5066447;28;20432;-44
2022/05/12 05:46:58;;;;;;;5.00;3.80;;;18.80;78.90;;;;;;5074501;28;20427;-44
2022/05/12 05:49:24;;;;;;;3.43;3.10;;;18.90;79.00;;;;;;5076223;28;20439;-44
2022/05/12 05:54:35;;;;;;;4.30;3.90;;;18.90;78.80;;;;;;5076361;28;20443;-44
2022/05/12 05:57:01;;;;;;;4.50;3.87;;;18.80;79.60;;;;;;5076060;28;20469;-44
2022/05/12 05:59:27;;;;;;;3.40;3.10;;;18.80;79.90;;;;;;5074857;28;20428;-44
2022/05/12 06:01:52;;;;;;;4.37;3.30;;;18.90;79.90;;;;;;5075450;28;20912;-44
2022/05/12 06:04:18;;;;;;;4.10;3.40;;;18.90;79.80;;;;;;5077832;28;20532;-44
2022/05/12 06:06:45;;;;;;;5.50;3.07;;;19.10;79.90;;;;;;5080840;28;20190;-45
2022/05/12 06:09:12;;;;;;;3.40;2.80;;;19.20;79.60;;;;;;5069390;28;20173;-45
2022/05/12 06:11:41;;;;;;;3.77;2.90;;;19.40;78.90;;;;;;5071858;28;20492;-45
2022/05/12 06:14:08;;;;;;;2.87;2.67;;;19.50;78.60;;;;;;5071381;28;20502;-45
2022/05/12 06:16:35;;;;;;;2.73;2.53;;;19.60;77.80;;;;;;5071245;28;20519;-45
2022/05/12 06:19:02;;;;;;;3.87;2.57;;;19.70;77.20;;;;;;5073751;28;20542;-45
2022/05/12 06:21:28;;;;;;;3.60;2.93;;;19.90;76.60;;;;;;5073696;28;20526;-44
2022/05/12 06:23:54;;;;;;;4.77;3.37;;;20.00;76.30;;;;;;5072700;28;20549;-45
2022/05/12 06:26:20;;;;;;;3.07;2.77;;;20.20;75.90;;;;;;5078546;28;20515;-45
2022/05/12 06:28:47;;;;;;;4.97;2.80;;;20.30;75.70;;;;;;5091928;28;20961;-45
2022/05/12 06:31:30;;;;;;;5.87;3.23;;;20.50;75.20;;;;;;5090706;28;20487;-45
2022/05/12 06:33:57;;;;;;;3.10;2.80;;;20.70;74.30;;;;;;5093477;28;20423;-44
2022/05/12 06:36:23;;;;;;;5.70;3.40;;;20.90;73.70;;;;;;5093027;28;20466;-44
2022/05/12 06:38:50;;;;;;;6.20;3.50;;;21.10;73.60;;;;;;5092216;28;20840;-45
2022/05/12 06:41:17;;;;;;;2.77;2.57;;;21.30;73.20;;;;;;5093248;28;20415;-45
2022/05/12 06:43:47;;;;;;;3.40;3.10;;;21.20;72.40;;;;;;5094048;28;20423;-45
2022/05/12 06:46:15;;;;;;;3.63;2.63;;;21.30;72.30;;;;;;5094968;28;20703;-44
2022/05/12 06:48:42;;;;;;;3.20;2.93;;;21.30;72.00;;;;;;5093397;28;20425;-45
2022/05/12 06:51:09;;;;;;;3.10;2.90;;;21.20;72.70;;;;;;5093174;28;20416;-45
2022/05/12 06:53:34;;;;;;;5.63;2.80;;;21.20;71.90;;;;;;5090472;28;20432;-44
2022/05/12 06:56:00;;;;;;;5.10;3.30;;;21.20;72.00;;;;;;5089975;28;20469;-45
2022/05/12 06:58:27;;;;;;;5.37;3.07;;;21.20;72.30;;;;;;5091526;28;20174;-45
2022/05/12 07:00:52;;;;;;;4.30;3.10;;;21.30;72.10;;;;;;5090270;28;20722;-44
2022/05/12 07:03:19;;;;;;;3.97;3.67;;;21.40;72.30;;;;;;5093041;28;20476;-47
2022/05/12 07:05:45;;;;;;;3.50;2.80;;;21.50;71.50;;;;;;5074351;28;20188;-47
2022/05/12 07:08:11;;;;;;;5.07;3.00;;;21.70;71.20;;;;;;5093804;28;20419;-47
2022/05/12 07:10:38;;;;;;;3.50;3.20;;;21.90;70.80;;;;;;5094404;28;20568;-47
2022/05/12 07:13:04;;;;;;;3.30;3.00;;;22.00;70.00;;;;;;5094311;28;20444;-47
2022/05/12 07:15:31;;;;;;;3.50;3.20;;;22.10;69.20;;;;;;5092288;28;20570;-47
2022/05/12 07:17:57;;;;;;;3.13;2.83;;;22.00;69.50;;;;;;5075418;28;20415;-47
2022/05/12 07:28:40;;;;;;;4.40;3.23;;;21.90;69.70;;;;;;5096365;28;20417;-47
2022/05/12 07:31:09;;;;;;;3.67;2.87;;;21.80;69.90;;;;;;5078889;28;20508;-47
2022/05/12 07:33:44;;;;;;;3.50;2.87;;;21.90;69.80;;;;;;5097064;28;20508;-54
2022/05/12 07:36:23;;;;;;;5.70;3.13;;;21.90;69.70;;;;;;5096666;28;20477;-48
2022/05/12 07:38:49;;;;;;;3.53;3.23;;;22.00;69.90;;;;;;5098049;28;20424;-44
2022/05/12 07:41:16;;;;;;;3.80;2.60;;;22.10;69.40;;;;;;5098179;28;20431;-41
2022/05/12 07:43:43;;;;;;;4.23;3.27;;;22.00;69.10;;;;;;5097730;28;20842;-39
2022/05/12 07:46:11;;;;;;;3.73;3.13;;;21.90;69.30;;;;;;5096890;28;20425;-39
2022/05/12 07:48:38;;;;;;;3.80;2.70;;;21.90;69.60;;;;;;5079564;28;20779;-39
2022/05/12 07:51:06;;;;;;;3.57;3.27;;;21.80;69.60;;;;;;5097580;28;20511;-40
2022/05/12 07:53:32;;;;;;;3.93;3.07;;;21.80;70.10;;;;;;5095789;28;20455;-40
2022/05/12 07:55:58;;;;;;;4.80;2.80;;;22.00;70.70;;;;;;5097288;28;20860;-39
2022/05/12 07:58:24;;;;;;;4.27;2.93;;;21.80;69.80;;;;;;5080295;28;20425;-39
2022/05/12 08:00:52;;;;;;;4.57;2.87;;;21.80;69.80;;;;;;5098461;28;20421;-37
2022/05/12 08:03:18;;;;;;;3.63;3.13;;;21.90;70.00;;;;;;5099365;28;20447;-39
2022/05/12 08:05:44;;;;;;;4.03;3.13;;;22.00;70.00;;;;;;5099190;28;20435;-42
2022/05/12 08:08:11;;;;;;;6.13;3.77;;;22.20;70.60;;;;;;5098017;28;20186;-38
2022/05/12 08:10:38;;;;;;;3.20;2.90;;;22.20;69.50;;;;;;5096726;28;20245;-41
2022/05/12 08:13:04;;;;;;;2.67;2.47;;;22.40;69.30;;;;;;5099215;28;20455;-39
2022/05/12 08:15:31;;;;;;;4.10;2.87;;;22.80;69.50;;;;;;5097798;28;20896;-39
2022/05/12 08:17:58;;;;;;;2.90;2.60;;;23.20;69.40;;;;;;5098647;28;20422;-39
2022/05/12 08:20:25;;;;;;;3.23;2.93;;;23.50;66.60;;;;;;5099381;28;20490;-40
2022/05/12 08:22:51;;;;;;;3.33;3.03;;;23.70;65.20;;;;;;5096994;28;20428;-40
2022/05/12 08:25:18;;;;;;;5.93;3.70;;;24.00;65.10;;;;;;5096080;28;20504;-39
2022/05/12 08:27:44;;;;;;;3.63;3.10;;;24.30;65.60;;;;;;5095976;28;20667;-41
2022/05/12 08:30:13;;;;;;;3.73;2.53;;;24.20;62.20;;;;;;5094814;28;20427;-40
2022/05/12 08:32:38;;;;;;;4.03;2.80;;;24.10;63.10;;;;;;5095012;28;20421;-41
2022/05/12 08:35:05;;;;;;;3.40;3.10;;;24.20;63.30;;;;;;5094005;28;20422;-40
2022/05/12 08:37:31;;;;;;;3.07;2.80;;;24.30;61.80;;;;;;5094529;28;20416;-39
2022/05/12 08:39:58;;;;;;;3.00;2.80;;;24.30;62.40;;;;;;5096393;28;20413;-39
2022/05/12 08:42:40;;;;;;;2.90;2.70;;;24.20;62.60;;;;;;5095581;28;20711;-37
2022/05/12 08:45:09;;;;;;;4.23;3.03;;;24.20;62.90;;;;;;5079095;28;20413;-39
2022/05/12 08:47:43;;;;;;;4.10;3.40;;;23.30;63.90;;;;;;5096716;28;20474;-39
2022/05/12 08:50:15;;;;;;;4.40;4.00;;;23.10;64.20;;;;;;5096884;28;20768;-38
2022/05/12 08:52:52;;;;;;;3.67;3.30;;;23.40;64.30;;;;;;5080375;28;20814;-37
2022/05/12 08:55:22;;;;;;;3.37;3.07;;;23.70;64.30;;;;;;5078408;28;20718;-38
2022/05/12 08:58:23;;;;;;;4.10;3.70;;;24.10;63.70;;;;;;5097421;28;20721;-38
2022/05/12 09:01:17;;;;;;;3.50;2.83;;;24.30;62.50;;;;;;4995816;28;20468;-38
2022/05/12 09:03:47;;;;;;;5.00;3.40;;;24.20;61.40;;;;;;5096932;28;20685;-38
2022/05/12 09:06:23;;;;;;;3.90;3.20;;;24.60;63.30;;;;;;5097214;28;20716;-40
2022/05/12 09:09:11;;;;;;;6.80;3.33;;;24.80;61.00;;;;;;5079921;28;20482;-40
2022/05/12 09:11:53;;;;;;;3.93;3.50;;;25.30;60.90;;;;;;5098208;28;20522;-42
2022/05/12 09:14:31;;;;;;;5.07;3.70;;;25.60;58.90;;;;;;5080238;28;20441;-41
2022/05/12 09:16:57;;;;;;;3.70;3.33;;;25.70;59.20;;;;;;5096869;28;20471;-40
2022/05/12 09:19:25;;;;;;;3.20;2.90;;;26.00;58.30;;;;;;5096482;28;20471;-41
2022/05/12 09:21:51;;;;;;;3.20;2.90;;;25.90;57.80;;;;;;5079902;28;20460;-39
2022/05/12 09:24:17;;;;;;;4.20;3.80;;;25.70;58.40;;;;;;5096253;28;20835;-38
2022/05/12 09:27:06;;;;;;;4.33;3.70;;;25.90;57.90;;;;;;5097145;28;20169;-40
2022/05/12 09:29:44;;;;;;;4.13;3.73;;;26.10;56.70;;;;;;5096276;28;20190;-42
2022/05/12 09:32:09;;;;;;;3.80;3.50;;;25.60;56.70;;;;;;5095986;28;20548;-42
2022/05/12 09:34:42;;;;;;;5.00;4.00;;;25.10;58.30;;;;;;5096736;28;20604;-40
2022/05/12 09:37:16;;;;;;;6.07;4.10;;;25.10;58.40;;;;;;5097638;28;20308;-40
2022/05/12 09:39:53;;;;;;;4.23;3.50;;;25.40;58.30;;;;;;5096244;28;20414;-39
2022/05/12 09:42:28;;;;;;;4.57;4.17;;;25.40;57.80;;;;;;5094754;28;20885;-40
2022/05/12 09:44:57;;;;;;;4.67;4.17;;;25.20;57.20;;;;;;5094066;28;20473;-39
2022/05/12 09:47:22;;;;;;;8.27;4.20;;;25.20;57.60;;;;;;5095546;28;20418;-41
2022/05/12 09:49:49;;;;;;;6.00;4.23;;;25.10;57.60;;;;;;5094488;28;20725;-41
2022/05/12 09:52:36;;;;;;;4.83;4.43;;;24.70;58.30;;;;;;5093884;28;20184;-41
2022/05/12 09:55:27;;;;;;;6.37;4.57;;;25.10;58.20;;;;;;5096780;28;20697;-40
2022/05/12 09:58:15;;;;;;;5.80;4.73;;;25.30;57.90;;;;;;5095881;28;20468;-39
2022/05/12 10:00:51;;;;;;;5.70;5.20;;;25.40;57.80;;;;;;5095384;28;20834;-42
2022/05/12 10:09:08;;;;;;;5.50;4.80;;;24.80;57.50;;;;;;5095794;28;20911;-39
2022/05/12 10:12:10;;;;;;;5.93;5.43;;;24.80;57.90;;;;;;5078411;28;20711;-37
2022/05/12 10:14:55;;;;;;;7.23;5.53;;;24.90;57.50;;;;;;5078205;28;20811;-39
2022/05/12 10:17:41;;;;;;;6.00;4.63;;;25.00;57.40;;;;;;5077900;28;20850;-37
2022/05/12 10:20:18;;;;;;;6.93;5.53;;;25.40;56.90;;;;;;5095429;28;20998;-37
2022/05/12 10:22:52;;;;;;;5.73;5.23;;;26.00;56.30;;;;;;5094848;28;20426;-38
2022/05/12 10:25:47;;;;;;;6.40;5.67;;;25.80;55.80;;;;;;5094949;28;20415;-38
2022/05/12 10:28:19;;;;;;;5.93;5.30;;;25.50;56.60;;;;;;5093826;28;20407;-41
2022/05/12 10:31:22;;;;;;;6.23;5.33;;;25.80;55.70;;;;;;5093649;28;20526;-36
2022/05/12 10:34:05;;;;;;;6.70;6.03;;;25.60;55.60;;;;;;5094541;28;20423;-40
2022/05/12 10:36:40;;;;;;;6.33;5.77;;;24.80;55.50;;;;;;5094495;28;20475;-39
2022/05/12 10:39:17;;;;;;;5.93;5.37;;;24.30;56.90;;;;;;5093506;28;20465;-38
2022/05/12 10:41:52;;;;;;;6.37;5.77;;;24.30;56.60;;;;;;5076059;28;20433;-39
2022/05/12 10:44:32;;;;;;;6.37;5.53;;;24.60;56.30;;;;;;5093671;28;20440;-38
2022/05/12 10:47:16;;;;;;;7.10;5.73;;;25.00;55.70;;;;;;5076176;28;20911;-38
2022/05/12 10:50:10;;;;;;;5.87;5.37;;;25.00;56.00;;;;;;5095533;28;20535;-39
2022/05/12 10:52:45;;;;;;;6.47;5.87;;;25.40;56.40;;;;;;5095189;28;20427;-38
2022/05/12 10:55:30;;;;;;;5.70;5.20;;;25.60;56.20;;;;;;5094624;28;20698;-37
2022/05/12 10:58:08;;;;;;;7.03;6.33;;;26.00;56.10;;;;;;5077123;28;20483;-41
2022/05/12 11:00:53;;;;;;;6.67;6.07;;;25.60;55.00;;;;;;5082043;28;20540;-38
2022/05/12 11:03:22;;;;;;;7.00;6.40;;;25.30;55.60;;;;;;5101178;28;20413;-41
2022/05/12 11:05:59;;;;;;;6.37;5.80;;;25.30;56.20;;;;;;5066247;28;20434;-39
2022/05/12 11:08:56;;;;;;;9.63;5.83;;;25.30;56.00;;;;;;5099516;28;20889;-39
2022/05/12 11:11:28;;;;;;;7.63;6.93;;;24.90;55.40;;;;;;5099037;28;20492;-38
2022/05/12 11:14:03;;;;;;;10.20;7.03;;;25.00;55.90;;;;;;5096748;28;20506;-36
2022/05/12 11:16:35;;;;;;;7.40;5.97;;;25.20;55.50;;;;;;5096215;28;20562;-37
2022/05/12 11:19:18;;;;;;;6.57;5.97;;;25.40;55.40;;;;;;5080077;28;20688;-38
2022/05/12 11:21:51;;;;;;;8.20;7.30;;;25.90;55.00;;;;;;5097427;28;20863;-38
2022/05/12 11:24:23;;;;;;;6.93;6.23;;;26.30;54.90;;;;;;5095702;28;20442;-38
2022/05/12 11:27:26;;;;;;;7.20;6.60;;;26.30;53.60;;;;;;5095905;28;20524;-37
2022/05/12 11:30:25;;;;;;;8.40;6.20;;;26.80;53.80;;;;;;5095976;28;20427;-42
2022/05/12 11:33:11;;;;;;;6.80;6.03;;;26.40;53.00;;;;;;5075957;28;20439;-41
2022/05/12 11:35:43;;;;;;;6.87;6.27;;;26.00;53.00;;;;;;5094524;28;20535;-40
2022/05/12 11:38:12;;;;;;;7.00;6.37;;;26.20;53.00;;;;;;5095564;28;20501;-40
2022/05/12 11:40:44;;;;;;;8.53;6.43;;;26.60;52.50;;;;;;5061499;28;20415;-39
2022/05/12 11:46:30;;;;;;;7.13;6.53;;;26.70;50.70;;;;;;5095588;28;20428;-40
2022/05/12 11:49:09;;;;;;;6.50;6.00;;;26.90;51.30;;;;;;5097218;28;20974;-39
2022/05/12 11:51:49;;;;;;;7.00;6.40;;;27.00;50.40;;;;;;5096959;28;20418;-41
2022/05/12 11:54:36;;;;;;;6.47;5.93;;;27.40;49.60;;;;;;5095736;28;20438;-40
2022/05/12 11:57:24;;;;;;;8.03;5.50;;;27.60;49.50;;;;;;5076630;28;20523;-39
2022/05/12 11:59:57;;;;;;;7.10;6.40;;;27.90;48.90;;;;;;5094052;28;20491;-39
2022/05/12 12:02:29;;;;;;;6.87;6.27;;;27.80;48.50;;;;;;5077495;28;20467;-41
2022/05/12 12:04:58;;;;;;;7.30;6.80;;;28.00;48.40;;;;;;5095919;28;20421;-40
2022/05/12 12:07:32;;;;;;;6.80;6.00;;;28.20;47.30;;;;;;5096560;28;20458;-39
2022/05/12 12:10:04;;;;;;;6.53;6.07;;;28.40;47.90;;;;;;5096541;28;20418;-41
2022/05/12 12:12:50;;;;;;;6.33;5.83;;;29.00;48.20;;;;;;5098546;28;20468;-41
2022/05/12 12:15:30;;;;;;;6.97;5.90;;;29.80;46.40;;;;;;5080354;28;20458;-38
2022/05/12 12:17:56;;;;;;;7.53;6.60;;;29.80;45.20;;;;;;5097367;28;20502;-41
2022/05/12 12:20:25;;;;;;;8.17;5.67;;;30.00;44.80;;;;;;5098034;28;20416;-41
2022/05/12 12:22:55;;;;;;;6.40;5.90;;;29.70;44.60;;;;;;5098229;28;20447;-39
2022/05/12 12:25:24;;;;;;;9.93;6.13;;;29.60;45.40;;;;;;5078755;28;20396;-38
2022/05/12 12:27:52;;;;;;;7.07;5.60;;;29.00;45.40;;;;;;5097960;28;20865;-40
2022/05/12 12:30:30;;;;;;;6.70;6.20;;;29.00;45.60;;;;;;5096682;28;20485;-40
2022/05/12 12:33:31;;;;;;;6.73;5.90;;;28.50;45.50;;;;;;5077570;28;20586;-40
2022/05/12 12:36:04;;;;;;;6.20;5.60;;;29.10;45.70;;;;;;5096566;28;20447;-38
2022/05/12 12:38:57;;;;;;;7.10;6.50;;;29.70;44.60;;;;;;5096684;28;20640;-40
2022/05/12 12:41:31;;;;;;;6.20;5.80;;;30.30;43.60;;;;;;5093250;28;20394;-40
2022/05/12 12:44:09;;;;;;;6.73;5.80;;;30.50;43.20;;;;;;5097669;28;20430;-38
2022/05/12 12:47:32;;;;;;;7.27;6.53;;;30.80;42.80;;;;;;5097525;28;20426;-38
2022/05/12 12:50:10;;;;;;;6.70;6.00;;;30.90;42.50;;;;;;5040753;28;20938;-38
2022/05/12 12:52:44;;;;;;;6.70;6.10;;;30.60;41.80;;;;;;5098309;28;20425;-38
2022/05/12 12:58:05;;;;;;;6.73;6.13;;;30.10;42.40;;;;;;5096509;28;20402;-40
2022/05/12 13:00:35;;;;;;;6.30;5.80;;;30.30;42.50;;;;;;5078361;28;20385;-38
2022/05/12 13:03:08;;;;;;;5.80;5.30;;;30.60;42.10;;;;;;5076763;28;20385;-38
2022/05/12 13:05:36;;;;;;;6.00;5.60;;;30.80;41.90;;;;;;5094963;28;20601;-40
2022/05/12 13:08:05;;;;;;;6.60;5.90;;;31.30;41.70;;;;;;5093414;28;20422;-40
2022/05/12 13:10:41;;;;;;;6.27;5.67;;;31.60;41.20;;;;;;5095425;28;20881;-41
2022/05/12 13:13:07;;;;;;;6.10;5.67;;;30.90;40.80;;;;;;5094511;28;20986;-41
2022/05/12 13:15:34;;;;;;;6.33;5.73;;;30.10;41.20;;;;;;5094949;28;20447;-41
2022/05/12 13:18:06;;;;;;;6.43;5.70;;;29.80;41.60;;;;;;5077714;28;20525;-38
2022/05/12 13:20:38;;;;;;;7.07;6.47;;;29.20;41.80;;;;;;5095561;28;20418;-40
2022/05/12 13:23:05;;;;;;;8.37;6.30;;;29.30;42.10;;;;;;5095488;28;20885;-44
2022/05/12 13:25:43;;;;;;;6.63;6.10;;;29.40;42.10;;;;;;5095853;28;20440;-38
2022/05/12 13:28:19;;;;;;;6.57;6.07;;;28.70;42.60;;;;;;5096378;28;20431;-40
2022/05/12 13:30:51;;;;;;;5.63;5.03;;;28.10;43.30;;;;;;5078487;28;20523;-38